LFPB/LBG METAR and TAF weather

Enter ICAO airport designator
Station Type Date Time Source
LFPB METAR 2022/08/13 12:00 UTC NOAA

LFPB 131200Z AUTO 08010KT 050V110 CAVOK 31/06 Q1013 NOSIG


Station Type Date Time Source
LFPB Decoded METAR 2022/08/13 12:00 UTC NOAA

Paris / Le Bourget, France (LFPB) 48-58N 002-27E 65M
Aug 13, 2022 - 08:00 AM EDT / 2022.08.13 1200 UTC
Wind: from the E (080 degrees) at 12 MPH (10 KT) (direction variable):0
Visibility: greater than 7 mile(s):0
Temperature: 87 F (31 C)
Dew Point: 42 F (6 C)
Relative Humidity: 20%
Pressure (altimeter): 29.91 in. Hg (1013 hPa)
ob: LFPB 131200Z AUTO 08010KT 050V110 CAVOK 31/06 Q1013 NOSIG
cycle: 12

Station Type Date Time Source
LFPB TAF 2022/08/13 12:21 UTC NOAA

TAF TAF LFPB 131100Z 1312/1412 11010KT CAVOK TX34/1315Z TN20/1405Z
BECMG 1410/1412 24010KT

Example: see airport list